sensor_id;sensor_type;location;lat;lon;timestamp;temperature;humidity
33825;DHT22;20127;48.962;8.342;2023-02-28T00:00:14;-0.20;89.10
33825;DHT22;20127;48.962;8.342;2023-02-28T00:03:18;-0.30;89.50
33825;DHT22;20127;48.962;8.342;2023-02-28T00:06:20;-0.30;89.80
33825;DHT22;20127;48.962;8.342;2023-02-28T00:09:22;-0.30;89.90
33825;DHT22;20127;48.962;8.342;2023-02-28T00:12:24;-0.40;90.00
33825;DHT22;20127;48.962;8.342;2023-02-28T00:15:26;-0.40;90.40
33825;DHT22;20127;48.962;8.342;2023-02-28T00:18:29;-0.40;90.20
33825;DHT22;20127;48.962;8.342;2023-02-28T00:21:31;-0.40;90.30
33825;DHT22;20127;48.962;8.342;2023-02-28T00:24:32;-0.40;90.30
33825;DHT22;20127;48.962;8.342;2023-02-28T00:27:35;-0.50;90.40
33825;DHT22;20127;48.962;8.342;2023-02-28T00:30:36;-0.50;90.50
33825;DHT22;20127;48.962;8.342;2023-02-28T00:33:39;-0.50;90.60
33825;DHT22;20127;48.962;8.342;2023-02-28T00:36:41;-0.50;90.70
33825;DHT22;20127;48.962;8.342;2023-02-28T00:39:45;-0.50;90.80
33825;DHT22;20127;48.962;8.342;2023-02-28T00:42:47;-0.50;91.00
33825;DHT22;20127;48.962;8.342;2023-02-28T00:45:49;-0.50;91.10
33825;DHT22;20127;48.962;8.342;2023-02-28T00:48:52;-0.50;91.20
33825;DHT22;20127;48.962;8.342;2023-02-28T00:51:54;-0.50;91.30
33825;DHT22;20127;48.962;8.342;2023-02-28T00:54:56;-0.50;91.20
33825;DHT22;20127;48.962;8.342;2023-02-28T00:57:58;-0.50;91.40
33825;DHT22;20127;48.962;8.342;2023-02-28T01:01:00;-0.50;91.50
33825;DHT22;20127;48.962;8.342;2023-02-28T01:04:03;-0.50;91.50
33825;DHT22;20127;48.962;8.342;2023-02-28T01:07:05;-0.50;91.50
33825;DHT22;20127;48.962;8.342;2023-02-28T01:10:08;-0.50;91.60
33825;DHT22;20127;48.962;8.342;2023-02-28T01:13:10;-0.50;91.60
33825;DHT22;20127;48.962;8.342;2023-02-28T01:16:12;-0.60;91.60
33825;DHT22;20127;48.962;8.342;2023-02-28T01:19:16;-0.70;91.70
33825;DHT22;20127;48.962;8.342;2023-02-28T01:22:17;-0.70;91.90
33825;DHT22;20127;48.962;8.342;2023-02-28T01:25:19;-0.70;91.90
33825;DHT22;20127;48.962;8.342;2023-02-28T01:28:21;-0.70;91.90
33825;DHT22;20127;48.962;8.342;2023-02-28T01:31:23;-0.70;92.00
33825;DHT22;20127;48.962;8.342;2023-02-28T01:34:26;-0.80;92.20
33825;DHT22;20127;48.962;8.342;2023-02-28T01:37:28;-0.80;92.20
33825;DHT22;20127;48.962;8.342;2023-02-28T01:40:29;-0.80;92.30
33825;DHT22;20127;48.962;8.342;2023-02-28T01:43:50;-0.80;92.40
33825;DHT22;20127;48.962;8.342;2023-02-28T01:46:53;-0.80;92.40
33825;DHT22;20127;48.962;8.342;2023-02-28T01:49:56;-0.80;92.50
33825;DHT22;20127;48.962;8.342;2023-02-28T01:53:01;-0.80;92.70
33825;DHT22;20127;48.962;8.342;2023-02-28T01:56:06;-0.80;92.70
33825;DHT22;20127;48.962;8.342;2023-02-28T01:59:08;-0.80;92.80
33825;DHT22;20127;48.962;8.342;2023-02-28T02:02:10;-0.90;92.80
33825;DHT22;20127;48.962;8.342;2023-02-28T02:05:16;-0.80;93.10
33825;DHT22;20127;48.962;8.342;2023-02-28T02:08:20;-0.90;93.10
33825;DHT22;20127;48.962;8.342;2023-02-28T02:11:24;-0.90;93.10
33825;DHT22;20127;48.962;8.342;2023-02-28T02:14:48;-0.90;93.20
33825;DHT22;20127;48.962;8.342;2023-02-28T02:17:53;-0.90;93.30
33825;DHT22;20127;48.962;8.342;2023-02-28T02:21:46;-0.90;93.20
33825;DHT22;20127;48.962;8.342;2023-02-28T02:25:12;-1.00;93.40
33825;DHT22;20127;48.962;8.342;2023-02-28T02:32:20;-1.10;93.50
33825;DHT22;20127;48.962;8.342;2023-02-28T02:35:37;-1.10;93.60
33825;DHT22;20127;48.962;8.342;2023-02-28T02:38:47;-1.10;93.60
33825;DHT22;20127;48.962;8.342;2023-02-28T02:41:52;-1.10;93.70
33825;DHT22;20127;48.962;8.342;2023-02-28T02:44:58;-1.20;93.80
33825;DHT22;20127;48.962;8.342;2023-02-28T02:48:04;-1.20;94.00
33825;DHT22;20127;48.962;8.342;2023-02-28T02:51:12;-1.10;94.20
33825;DHT22;20127;48.962;8.342;2023-02-28T02:54:17;-1.10;94.30
33825;DHT22;20127;48.962;8.342;2023-02-28T02:57:24;-1.10;94.40
33825;DHT22;20127;48.962;8.342;2023-02-28T03:00:32;-1.10;94.40
33825;DHT22;20127;48.962;8.342;2023-02-28T03:03:35;-1.10;94.60
33825;DHT22;20127;48.962;8.342;2023-02-28T03:06:39;-1.10;94.60
33825;DHT22;20127;48.962;8.342;2023-02-28T03:09:49;-1.10;94.90
33825;DHT22;20127;48.962;8.342;2023-02-28T03:12:57;-1.00;95.00
33825;DHT22;20127;48.962;8.342;2023-02-28T03:16:12;-0.90;95.10
33825;DHT22;20127;48.962;8.342;2023-02-28T03:19:34;-0.80;95.30
33825;DHT22;20127;48.962;8.342;2023-02-28T03:22:52;-0.70;95.30
33825;DHT22;20127;48.962;8.342;2023-02-28T03:25:59;-0.60;95.30
33825;DHT22;20127;48.962;8.342;2023-02-28T03:29:07;-0.60;95.30
33825;DHT22;20127;48.962;8.342;2023-02-28T03:32:17;-0.50;95.40
33825;DHT22;20127;48.962;8.342;2023-02-28T03:35:23;-0.40;95.40
33825;DHT22;20127;48.962;8.342;2023-02-28T03:38:29;-0.40;95.40
33825;DHT22;20127;48.962;8.342;2023-02-28T03:41:36;-0.30;95.50
33825;DHT22;20127;48.962;8.342;2023-02-28T03:44:41;-0.30;95.80
33825;DHT22;20127;48.962;8.342;2023-02-28T03:47:48;-0.20;95.60
33825;DHT22;20127;48.962;8.342;2023-02-28T03:50:54;-0.20;95.60
33825;DHT22;20127;48.962;8.342;2023-02-28T03:54:02;-0.20;95.60
33825;DHT22;20127;48.962;8.342;2023-02-28T03:57:10;-0.10;95.70
33825;DHT22;20127;48.962;8.342;2023-02-28T04:00:18;-0.10;95.70
33825;DHT22;20127;48.962;8.342;2023-02-28T04:03:21;-0.10;95.80
33825;DHT22;20127;48.962;8.342;2023-02-28T04:06:24;-0.10;95.80
33825;DHT22;20127;48.962;8.342;2023-02-28T04:09:27;0.00;95.90
33825;DHT22;20127;48.962;8.342;2023-02-28T04:12:29;0.00;95.90
33825;DHT22;20127;48.962;8.342;2023-02-28T04:15:30;0.00;95.90
33825;DHT22;20127;48.962;8.342;2023-02-28T04:18:32;0.00;96.00
33825;DHT22;20127;48.962;8.342;2023-02-28T04:21:36;0.00;96.00
33825;DHT22;20127;48.962;8.342;2023-02-28T04:24:40;0.00;96.00
33825;DHT22;20127;48.962;8.342;2023-02-28T04:27:42;0.00;96.00
33825;DHT22;20127;48.962;8.342;2023-02-28T04:30:44;0.10;96.10
33825;DHT22;20127;48.962;8.342;2023-02-28T04:33:46;0.10;96.10
33825;DHT22;20127;48.962;8.342;2023-02-28T04:36:48;0.10;96.10
33825;DHT22;20127;48.962;8.342;2023-02-28T04:39:52;0.10;96.10
33825;DHT22;20127;48.962;8.342;2023-02-28T04:42:53;0.10;96.10
33825;DHT22;20127;48.962;8.342;2023-02-28T04:45:56;0.10;96.10
33825;DHT22;20127;48.962;8.342;2023-02-28T04:48:58;0.00;96.10
33825;DHT22;20127;48.962;8.342;2023-02-28T04:52:00;0.00;96.10
33825;DHT22;20127;48.962;8.342;2023-02-28T04:55:04;-0.10;96.10
33825;DHT22;20127;48.962;8.342;2023-02-28T04:58:06;-0.10;96.10
33825;DHT22;20127;48.962;8.342;2023-02-28T05:01:17;-0.20;96.20
33825;DHT22;20127;48.962;8.342;2023-02-28T05:04:19;-0.20;96.30
33825;DHT22;20127;48.962;8.342;2023-02-28T05:07:21;-0.30;96.30
33825;DHT22;20127;48.962;8.342;2023-02-28T05:10:24;-0.30;96.40
33825;DHT22;20127;48.962;8.342;2023-02-28T05:13:25;-0.30;96.50
33825;DHT22;20127;48.962;8.342;2023-02-28T05:16:27;-0.20;96.60
33825;DHT22;20127;48.962;8.342;2023-02-28T05:19:29;-0.20;96.60
33825;DHT22;20127;48.962;8.342;2023-02-28T05:22:31;-0.20;96.60
33825;DHT22;20127;48.962;8.342;2023-02-28T05:25:34;-0.20;96.50
33825;DHT22;20127;48.962;8.342;2023-02-28T05:28:35;-0.30;96.60
33825;DHT22;20127;48.962;8.342;2023-02-28T05:31:37;-0.30;96.70
33825;DHT22;20127;48.962;8.342;2023-02-28T05:34:39;-0.30;96.80
33825;DHT22;20127;48.962;8.342;2023-02-28T05:37:41;-0.30;96.80
33825;DHT22;20127;48.962;8.342;2023-02-28T05:40:44;-0.30;96.90
33825;DHT22;20127;48.962;8.342;2023-02-28T05:43:46;-0.30;97.00
33825;DHT22;20127;48.962;8.342;2023-02-28T05:46:48;-0.30;97.00
33825;DHT22;20127;48.962;8.342;2023-02-28T05:49:50;-0.30;97.10
33825;DHT22;20127;48.962;8.342;2023-02-28T05:52:51;-0.30;97.10
33825;DHT22;20127;48.962;8.342;2023-02-28T05:55:54;-0.30;97.20
33825;DHT22;20127;48.962;8.342;2023-02-28T05:58:56;-0.30;97.20
33825;DHT22;20127;48.962;8.342;2023-02-28T06:01:58;-0.20;97.30
33825;DHT22;20127;48.962;8.342;2023-02-28T06:04:59;-0.20;97.30
33825;DHT22;20127;48.962;8.342;2023-02-28T06:08:02;-0.20;97.30
33825;DHT22;20127;48.962;8.342;2023-02-28T06:11:05;-0.10;97.20
33825;DHT22;20127;48.962;8.342;2023-02-28T06:14:09;-0.10;97.40
33825;DHT22;20127;48.962;8.342;2023-02-28T06:17:14;0.00;97.50
33825;DHT22;20127;48.962;8.342;2023-02-28T06:20:16;0.00;97.50
33825;DHT22;20127;48.962;8.342;2023-02-28T06:23:18;0.10;97.50
33825;DHT22;20127;48.962;8.342;2023-02-28T06:26:21;0.10;97.40
33825;DHT22;20127;48.962;8.342;2023-02-28T06:29:23;0.20;97.50
33825;DHT22;20127;48.962;8.342;2023-02-28T06:32:24;0.10;97.40
33825;DHT22;20127;48.962;8.342;2023-02-28T06:35:26;0.20;97.50
33825;DHT22;20127;48.962;8.342;2023-02-28T06:38:28;0.30;97.50
33825;DHT22;20127;48.962;8.342;2023-02-28T06:41:31;0.30;97.40
33825;DHT22;20127;48.962;8.342;2023-02-28T06:44:38;0.40;97.50
33825;DHT22;20127;48.962;8.342;2023-02-28T06:47:40;0.40;97.50
33825;DHT22;20127;48.962;8.342;2023-02-28T06:50:42;0.50;97.50
33825;DHT22;20127;48.962;8.342;2023-02-28T06:53:44;0.50;97.50
33825;DHT22;20127;48.962;8.342;2023-02-28T06:56:47;0.50;97.40
33825;DHT22;20127;48.962;8.342;2023-02-28T06:59:49;0.60;97.40
33825;DHT22;20127;48.962;8.342;2023-02-28T07:02:51;0.60;97.30
33825;DHT22;20127;48.962;8.342;2023-02-28T07:05:54;0.60;97.30
33825;DHT22;20127;48.962;8.342;2023-02-28T07:08:57;0.60;97.30
33825;DHT22;20127;48.962;8.342;2023-02-28T07:12:00;0.70;97.20
33825;DHT22;20127;48.962;8.342;2023-02-28T07:15:02;0.70;97.20
33825;DHT22;20127;48.962;8.342;2023-02-28T07:18:04;0.80;97.20
33825;DHT22;20127;48.962;8.342;2023-02-28T07:21:07;0.80;97.10
33825;DHT22;20127;48.962;8.342;2023-02-28T07:24:08;0.80;97.00
33825;DHT22;20127;48.962;8.342;2023-02-28T07:27:12;0.90;96.90
33825;DHT22;20127;48.962;8.342;2023-02-28T07:30:25;0.90;97.00
33825;DHT22;20127;48.962;8.342;2023-02-28T07:33:27;0.90;96.90
33825;DHT22;20127;48.962;8.342;2023-02-28T07:36:29;1.00;96.90
33825;DHT22;20127;48.962;8.342;2023-02-28T07:39:30;1.10;96.80
33825;DHT22;20127;48.962;8.342;2023-02-28T07:42:34;1.10;96.80
33825;DHT22;20127;48.962;8.342;2023-02-28T07:45:36;1.20;96.80
33825;DHT22;20127;48.962;8.342;2023-02-28T07:48:38;1.30;96.70
33825;DHT22;20127;48.962;8.342;2023-02-28T07:51:39;1.30;96.40
33825;DHT22;20127;48.962;8.342;2023-02-28T07:54:41;1.30;96.40
33825;DHT22;20127;48.962;8.342;2023-02-28T07:57:44;1.40;96.20
33825;DHT22;20127;48.962;8.342;2023-02-28T08:00:46;1.40;96.30
33825;DHT22;20127;48.962;8.342;2023-02-28T08:03:48;1.40;96.10
33825;DHT22;20127;48.962;8.342;2023-02-28T08:06:50;1.40;96.00
33825;DHT22;20127;48.962;8.342;2023-02-28T08:09:53;1.40;96.00
33825;DHT22;20127;48.962;8.342;2023-02-28T08:12:56;1.40;95.80
33825;DHT22;20127;48.962;8.342;2023-02-28T08:15:58;1.40;95.70
33825;DHT22;20127;48.962;8.342;2023-02-28T08:19:02;1.50;95.80
33825;DHT22;20127;48.962;8.342;2023-02-28T08:22:04;1.50;95.70
33825;DHT22;20127;48.962;8.342;2023-02-28T08:25:07;1.60;95.90
33825;DHT22;20127;48.962;8.342;2023-02-28T08:28:10;1.70;95.90
33825;DHT22;20127;48.962;8.342;2023-02-28T08:31:14;1.80;95.70
33825;DHT22;20127;48.962;8.342;2023-02-28T08:34:16;1.90;95.30
33825;DHT22;20127;48.962;8.342;2023-02-28T08:37:18;1.80;95.10
33825;DHT22;20127;48.962;8.342;2023-02-28T08:40:20;1.80;95.00
33825;DHT22;20127;48.962;8.342;2023-02-28T08:43:23;1.80;95.10
33825;DHT22;20127;48.962;8.342;2023-02-28T08:46:25;1.80;95.00
33825;DHT22;20127;48.962;8.342;2023-02-28T08:49:27;1.80;95.10
33825;DHT22;20127;48.962;8.342;2023-02-28T08:52:29;1.90;95.00
33825;DHT22;20127;48.962;8.342;2023-02-28T08:55:30;1.90;95.00
33825;DHT22;20127;48.962;8.342;2023-02-28T08:58:34;1.90;95.10
33825;DHT22;20127;48.962;8.342;2023-02-28T09:01:36;2.10;95.10
33825;DHT22;20127;48.962;8.342;2023-02-28T09:04:37;2.20;94.90
33825;DHT22;20127;48.962;8.342;2023-02-28T09:07:39;2.40;94.80
33825;DHT22;20127;48.962;8.342;2023-02-28T09:10:41;2.40;94.50
33825;DHT22;20127;48.962;8.342;2023-02-28T09:13:44;2.40;94.30
33825;DHT22;20127;48.962;8.342;2023-02-28T09:16:46;2.50;94.40
33825;DHT22;20127;48.962;8.342;2023-02-28T09:19:48;2.50;94.00
33825;DHT22;20127;48.962;8.342;2023-02-28T09:22:50;2.50;93.90
33825;DHT22;20127;48.962;8.342;2023-02-28T09:25:53;2.60;93.90
33825;DHT22;20127;48.962;8.342;2023-02-28T09:28:57;2.60;93.90
33825;DHT22;20127;48.962;8.342;2023-02-28T09:31:59;2.70;93.60
33825;DHT22;20127;48.962;8.342;2023-02-28T09:35:01;2.70;93.40
33825;DHT22;20127;48.962;8.342;2023-02-28T09:38:03;2.70;93.60
33825;DHT22;20127;48.962;8.342;2023-02-28T09:41:12;2.80;93.40
33825;DHT22;20127;48.962;8.342;2023-02-28T09:44:22;2.90;93.40
33825;DHT22;20127;48.962;8.342;2023-02-28T09:47:30;3.00;93.50
33825;DHT22;20127;48.962;8.342;2023-02-28T09:50:36;3.20;93.70
33825;DHT22;20127;48.962;8.342;2023-02-28T09:53:40;3.60;93.30
33825;DHT22;20127;48.962;8.342;2023-02-28T09:56:42;3.80;93.20
33825;DHT22;20127;48.962;8.342;2023-02-28T09:59:59;4.00;92.70
33825;DHT22;20127;48.962;8.342;2023-02-28T10:03:25;4.10;92.20
33825;DHT22;20127;48.962;8.342;2023-02-28T10:06:32;4.10;91.50
33825;DHT22;20127;48.962;8.342;2023-02-28T10:09:36;4.00;91.50
33825;DHT22;20127;48.962;8.342;2023-02-28T10:12:41;4.10;91.60
33825;DHT22;20127;48.962;8.342;2023-02-28T10:15:48;4.20;91.50
33825;DHT22;20127;48.962;8.342;2023-02-28T10:18:56;4.40;91.50
33825;DHT22;20127;48.962;8.342;2023-02-28T10:22:01;4.60;91.20
33825;DHT22;20127;48.962;8.342;2023-02-28T10:25:16;4.90;90.80
33825;DHT22;20127;48.962;8.342;2023-02-28T10:28:19;4.80;90.10
33825;DHT22;20127;48.962;8.342;2023-02-28T10:31:22;4.60;89.80
33825;DHT22;20127;48.962;8.342;2023-02-28T10:34:24;4.50;89.60
33825;DHT22;20127;48.962;8.342;2023-02-28T10:37:26;4.30;89.90
33825;DHT22;20127;48.962;8.342;2023-02-28T10:40:31;4.20;89.70
33825;DHT22;20127;48.962;8.342;2023-02-28T10:43:34;4.00;89.70
33825;DHT22;20127;48.962;8.342;2023-02-28T10:46:39;4.00;90.10
33825;DHT22;20127;48.962;8.342;2023-02-28T10:49:47;3.90;89.90
33825;DHT22;20127;48.962;8.342;2023-02-28T10:52:49;3.80;90.10
33825;DHT22;20127;48.962;8.342;2023-02-28T10:55:57;3.90;90.10
33825;DHT22;20127;48.962;8.342;2023-02-28T10:59:00;3.90;90.10
33825;DHT22;20127;48.962;8.342;2023-02-28T11:02:30;3.80;90.10
33825;DHT22;20127;48.962;8.342;2023-02-28T11:05:35;3.80;90.30
33825;DHT22;20127;48.962;8.342;2023-02-28T11:08:45;3.90;90.20
33825;DHT22;20127;48.962;8.342;2023-02-28T11:11:48;3.90;90.10
33825;DHT22;20127;48.962;8.342;2023-02-28T11:14:54;3.90;90.10
33825;DHT22;20127;48.962;8.342;2023-02-28T11:17:59;3.90;90.10
33825;DHT22;20127;48.962;8.342;2023-02-28T11:21:02;3.90;90.20
33825;DHT22;20127;48.962;8.342;2023-02-28T11:24:07;4.00;90.30
33825;DHT22;20127;48.962;8.342;2023-02-28T11:27:26;4.10;90.10
33825;DHT22;20127;48.962;8.342;2023-02-28T11:30:34;4.20;90.10
33825;DHT22;20127;48.962;8.342;2023-02-28T11:33:42;4.20;89.70
33825;DHT22;20127;48.962;8.342;2023-02-28T11:36:45;4.20;89.60
33825;DHT22;20127;48.962;8.342;2023-02-28T11:39:47;4.10;89.60
33825;DHT22;20127;48.962;8.342;2023-02-28T11:42:57;4.30;90.00
33825;DHT22;20127;48.962;8.342;2023-02-28T11:46:16;4.40;90.00
33825;DHT22;20127;48.962;8.342;2023-02-28T11:49:34;4.60;89.00
33825;DHT22;20127;48.962;8.342;2023-02-28T11:52:42;4.60;88.50
33825;DHT22;20127;48.962;8.342;2023-02-28T11:55:49;4.60;88.40
33825;DHT22;20127;48.962;8.342;2023-02-28T11:58:59;4.80;88.30
33825;DHT22;20127;48.962;8.342;2023-02-28T12:02:16;4.90;88.50
33825;DHT22;20127;48.962;8.342;2023-02-28T12:05:30;5.10;87.80
33825;DHT22;20127;48.962;8.342;2023-02-28T12:08:44;5.20;86.60
33825;DHT22;20127;48.962;8.342;2023-02-28T12:11:52;5.20;86.30
33825;DHT22;20127;48.962;8.342;2023-02-28T12:15:24;5.30;86.30
33825;DHT22;20127;48.962;8.342;2023-02-28T12:18:50;5.20;85.00
33825;DHT22;20127;48.962;8.342;2023-02-28T12:22:12;5.30;85.70
33825;DHT22;20127;48.962;8.342;2023-02-28T12:25:40;5.40;85.10
33825;DHT22;20127;48.962;8.342;2023-02-28T12:28:49;5.50;85.00
33825;DHT22;20127;48.962;8.342;2023-02-28T12:31:54;5.60;84.80
33825;DHT22;20127;48.962;8.342;2023-02-28T12:35:01;5.80;84.70
33825;DHT22;20127;48.962;8.342;2023-02-28T12:38:09;5.90;82.90
33825;DHT22;20127;48.962;8.342;2023-02-28T12:41:14;5.90;83.20
33825;DHT22;20127;48.962;8.342;2023-02-28T12:44:21;5.90;83.40
33825;DHT22;20127;48.962;8.342;2023-02-28T12:47:25;5.90;82.60
33825;DHT22;20127;48.962;8.342;2023-02-28T12:50:27;5.70;82.80
33825;DHT22;20127;48.962;8.342;2023-02-28T12:53:39;5.70;82.90
33825;DHT22;20127;48.962;8.342;2023-02-28T12:56:48;5.60;82.80
33825;DHT22;20127;48.962;8.342;2023-02-28T12:59:56;5.50;82.50
33825;DHT22;20127;48.962;8.342;2023-02-28T13:03:30;5.90;83.80
33825;DHT22;20127;48.962;8.342;2023-02-28T13:10:16;7.30;81.50
33825;DHT22;20127;48.962;8.342;2023-02-28T13:13:20;7.60;79.80
33825;DHT22;20127;48.962;8.342;2023-02-28T13:16:23;7.70;79.80
33825;DHT22;20127;48.962;8.342;2023-02-28T13:19:27;7.40;78.50
33825;DHT22;20127;48.962;8.342;2023-02-28T13:22:41;7.10;78.60
33825;DHT22;20127;48.962;8.342;2023-02-28T13:25:54;7.10;78.90
33825;DHT22;20127;48.962;8.342;2023-02-28T13:28:59;7.00;78.20
33825;DHT22;20127;48.962;8.342;2023-02-28T13:32:35;7.10;79.20
33825;DHT22;20127;48.962;8.342;2023-02-28T13:35:44;7.50;78.50
33825;DHT22;20127;48.962;8.342;2023-02-28T13:38:47;7.50;78.20
33825;DHT22;20127;48.962;8.342;2023-02-28T13:41:51;7.70;77.50
33825;DHT22;20127;48.962;8.342;2023-02-28T13:45:21;7.90;77.80
33825;DHT22;20127;48.962;8.342;2023-02-28T13:48:26;8.30;76.50
33825;DHT22;20127;48.962;8.342;2023-02-28T13:51:41;8.20;75.70
33825;DHT22;20127;48.962;8.342;2023-02-28T13:54:58;8.10;74.80
33825;DHT22;20127;48.962;8.342;2023-02-28T13:58:24;7.80;75.20
33825;DHT22;20127;48.962;8.342;2023-02-28T14:01:48;7.80;76.00
33825;DHT22;20127;48.962;8.342;2023-02-28T14:05:02;7.90;76.30
33825;DHT22;20127;48.962;8.342;2023-02-28T14:08:12;8.60;76.50
33825;DHT22;20127;48.962;8.342;2023-02-28T14:11:26;8.90;74.40
33825;DHT22;20127;48.962;8.342;2023-02-28T14:14:55;9.00;73.90
33825;DHT22;20127;48.962;8.342;2023-02-28T14:17:59;9.30;73.40
33825;DHT22;20127;48.962;8.342;2023-02-28T14:21:09;9.20;72.20
33825;DHT22;20127;48.962;8.342;2023-02-28T14:28:02;8.80;71.70
33825;DHT22;20127;48.962;8.342;2023-02-28T14:31:09;8.70;72.70
33825;DHT22;20127;48.962;8.342;2023-02-28T14:34:25;8.70;72.30
33825;DHT22;20127;48.962;8.342;2023-02-28T14:37:33;8.90;72.60
33825;DHT22;20127;48.962;8.342;2023-02-28T14:40:38;9.00;71.40
33825;DHT22;20127;48.962;8.342;2023-02-28T14:43:48;8.90;71.50
33825;DHT22;20127;48.962;8.342;2023-02-28T14:46:53;9.10;72.00
33825;DHT22;20127;48.962;8.342;2023-02-28T14:49:55;9.40;71.50
33825;DHT22;20127;48.962;8.342;2023-02-28T14:52:58;9.50;71.80
33825;DHT22;20127;48.962;8.342;2023-02-28T14:56:01;9.50;70.80
33825;DHT22;20127;48.962;8.342;2023-02-28T14:59:04;9.40;70.40
33825;DHT22;20127;48.962;8.342;2023-02-28T15:02:20;9.40;70.60
33825;DHT22;20127;48.962;8.342;2023-02-28T15:05:26;9.40;70.30
33825;DHT22;20127;48.962;8.342;2023-02-28T15:08:28;9.40;70.40
33825;DHT22;20127;48.962;8.342;2023-02-28T15:11:35;9.20;70.40
33825;DHT22;20127;48.962;8.342;2023-02-28T15:14:38;9.20;70.00
33825;DHT22;20127;48.962;8.342;2023-02-28T15:17:46;9.10;70.20
33825;DHT22;20127;48.962;8.342;2023-02-28T15:20:50;8.90;70.10
33825;DHT22;20127;48.962;8.342;2023-02-28T15:23:55;8.80;70.30
33825;DHT22;20127;48.962;8.342;2023-02-28T15:26:59;8.60;70.20
33825;DHT22;20127;48.962;8.342;2023-02-28T15:30:05;8.60;70.20
33825;DHT22;20127;48.962;8.342;2023-02-28T15:33:20;8.60;70.50
33825;DHT22;20127;48.962;8.342;2023-02-28T15:36:25;8.50;70.40
33825;DHT22;20127;48.962;8.342;2023-02-28T15:39:28;8.30;70.70
33825;DHT22;20127;48.962;8.342;2023-02-28T15:42:30;8.00;70.90
33825;DHT22;20127;48.962;8.342;2023-02-28T15:45:35;7.70;70.70
33825;DHT22;20127;48.962;8.342;2023-02-28T15:48:46;7.40;71.50
33825;DHT22;20127;48.962;8.342;2023-02-28T15:51:51;7.20;72.00
33825;DHT22;20127;48.962;8.342;2023-02-28T15:54:53;7.00;72.40
33825;DHT22;20127;48.962;8.342;2023-02-28T15:57:57;6.80;72.60
33825;DHT22;20127;48.962;8.342;2023-02-28T16:01:08;6.60;73.20
33825;DHT22;20127;48.962;8.342;2023-02-28T16:04:20;6.40;73.50
33825;DHT22;20127;48.962;8.342;2023-02-28T16:07:22;6.30;74.00
33825;DHT22;20127;48.962;8.342;2023-02-28T16:10:26;6.20;74.30
33825;DHT22;20127;48.962;8.342;2023-02-28T16:13:28;6.10;74.70
33825;DHT22;20127;48.962;8.342;2023-02-28T16:16:31;6.00;74.90
33825;DHT22;20127;48.962;8.342;2023-02-28T16:19:35;5.90;75.10
33825;DHT22;20127;48.962;8.342;2023-02-28T16:22:37;5.80;75.30
33825;DHT22;20127;48.962;8.342;2023-02-28T16:25:40;5.70;75.60
33825;DHT22;20127;48.962;8.342;2023-02-28T16:28:43;5.70;75.70
33825;DHT22;20127;48.962;8.342;2023-02-28T16:31:45;5.60;76.30
33825;DHT22;20127;48.962;8.342;2023-02-28T16:34:48;5.60;76.50
33825;DHT22;20127;48.962;8.342;2023-02-28T16:37:51;5.50;76.70
33825;DHT22;20127;48.962;8.342;2023-02-28T16:40:55;5.50;77.00
33825;DHT22;20127;48.962;8.342;2023-02-28T16:43:59;5.40;77.00
33825;DHT22;20127;48.962;8.342;2023-02-28T16:47:02;5.30;77.30
33825;DHT22;20127;48.962;8.342;2023-02-28T16:50:12;5.20;77.40
33825;DHT22;20127;48.962;8.342;2023-02-28T16:53:14;5.20;77.60
33825;DHT22;20127;48.962;8.342;2023-02-28T16:56:17;5.10;77.80
33825;DHT22;20127;48.962;8.342;2023-02-28T16:59:23;5.00;78.10
33825;DHT22;20127;48.962;8.342;2023-02-28T17:02:25;5.00;78.30
33825;DHT22;20127;48.962;8.342;2023-02-28T17:05:34;4.90;78.40
33825;DHT22;20127;48.962;8.342;2023-02-28T17:08:37;4.90;78.60
33825;DHT22;20127;48.962;8.342;2023-02-28T17:11:39;4.80;78.60
33825;DHT22;20127;48.962;8.342;2023-02-28T17:14:40;4.70;79.00
33825;DHT22;20127;48.962;8.342;2023-02-28T17:17:43;4.60;79.00
33825;DHT22;20127;48.962;8.342;2023-02-28T17:20:47;4.50;79.20
33825;DHT22;20127;48.962;8.342;2023-02-28T17:23:49;4.40;79.40
33825;DHT22;20127;48.962;8.342;2023-02-28T17:26:51;4.40;79.60
33825;DHT22;20127;48.962;8.342;2023-02-28T17:29:52;4.30;79.90
33825;DHT22;20127;48.962;8.342;2023-02-28T17:32:54;4.20;80.30
33825;DHT22;20127;48.962;8.342;2023-02-28T17:35:57;4.10;81.00
33825;DHT22;20127;48.962;8.342;2023-02-28T17:38:59;4.10;80.60
33825;DHT22;20127;48.962;8.342;2023-02-28T17:42:02;4.00;80.80
33825;DHT22;20127;48.962;8.342;2023-02-28T17:45:04;4.00;81.00
33825;DHT22;20127;48.962;8.342;2023-02-28T17:48:09;3.90;81.20
33825;DHT22;20127;48.962;8.342;2023-02-28T17:51:13;3.90;81.40
33825;DHT22;20127;48.962;8.342;2023-02-28T17:54:15;3.80;81.40
33825;DHT22;20127;48.962;8.342;2023-02-28T17:57:17;3.80;81.70
33825;DHT22;20127;48.962;8.342;2023-02-28T18:00:21;3.70;82.00
33825;DHT22;20127;48.962;8.342;2023-02-28T18:03:24;3.70;82.00
33825;DHT22;20127;48.962;8.342;2023-02-28T18:06:35;3.60;82.20
33825;DHT22;20127;48.962;8.342;2023-02-28T18:09:46;3.60;82.50
33825;DHT22;20127;48.962;8.342;2023-02-28T18:12:49;3.50;82.60
33825;DHT22;20127;48.962;8.342;2023-02-28T18:15:51;3.50;82.80
33825;DHT22;20127;48.962;8.342;2023-02-28T18:18:56;3.50;82.80
33825;DHT22;20127;48.962;8.342;2023-02-28T18:21:59;3.50;83.20
33825;DHT22;20127;48.962;8.342;2023-02-28T18:25:00;3.40;83.30
33825;DHT22;20127;48.962;8.342;2023-02-28T18:28:02;3.40;83.40
33825;DHT22;20127;48.962;8.342;2023-02-28T18:31:05;3.40;83.50
33825;DHT22;20127;48.962;8.342;2023-02-28T18:34:07;3.30;83.80
33825;DHT22;20127;48.962;8.342;2023-02-28T18:37:10;3.30;83.70
33825;DHT22;20127;48.962;8.342;2023-02-28T18:40:12;3.20;83.90
33825;DHT22;20127;48.962;8.342;2023-02-28T18:43:15;3.20;84.00
33825;DHT22;20127;48.962;8.342;2023-02-28T18:46:18;3.20;84.10
33825;DHT22;20127;48.962;8.342;2023-02-28T18:49:20;3.10;84.40
33825;DHT22;20127;48.962;8.342;2023-02-28T18:52:23;3.00;84.50
33825;DHT22;20127;48.962;8.342;2023-02-28T18:55:25;3.00;84.60
33825;DHT22;20127;48.962;8.342;2023-02-28T18:58:27;3.00;84.70
33825;DHT22;20127;48.962;8.342;2023-02-28T19:01:29;2.90;85.00
33825;DHT22;20127;48.962;8.342;2023-02-28T19:04:31;2.90;85.00
33825;DHT22;20127;48.962;8.342;2023-02-28T19:07:35;2.90;85.10
33825;DHT22;20127;48.962;8.342;2023-02-28T19:10:37;2.80;85.20
33825;DHT22;20127;48.962;8.342;2023-02-28T19:13:39;2.80;85.30
33825;DHT22;20127;48.962;8.342;2023-02-28T19:16:41;2.80;85.40
33825;DHT22;20127;48.962;8.342;2023-02-28T19:19:48;2.80;85.60
33825;DHT22;20127;48.962;8.342;2023-02-28T19:22:52;2.70;85.70
33825;DHT22;20127;48.962;8.342;2023-02-28T19:25:54;2.70;85.80
33825;DHT22;20127;48.962;8.342;2023-02-28T19:28:56;2.70;85.90
33825;DHT22;20127;48.962;8.342;2023-02-28T19:31:58;2.60;85.90
33825;DHT22;20127;48.962;8.342;2023-02-28T19:34:59;2.60;86.10
33825;DHT22;20127;48.962;8.342;2023-02-28T19:38:03;2.50;86.30
33825;DHT22;20127;48.962;8.342;2023-02-28T19:41:07;2.60;86.60
33825;DHT22;20127;48.962;8.342;2023-02-28T19:48:09;2.50;87.30
33825;DHT22;20127;48.962;8.342;2023-02-28T19:51:38;2.50;86.80
33825;DHT22;20127;48.962;8.342;2023-02-28T19:54:42;2.50;87.00
33825;DHT22;20127;48.962;8.342;2023-02-28T19:57:44;2.50;87.00
33825;DHT22;20127;48.962;8.342;2023-02-28T20:00:55;2.50;87.10